Time,TemperatureF,DewpointF,PressureIn,WindDirection,WindDirectionDegrees,WindSpeedMPH,WindSpeedGustMPH,Humidity,HourlyPrecipIn,Conditions,Clouds,dailyrainin,SolarRadiationWatts/m^2,SoftwareType,DateUTC
2013-03-20 00:42:00,-16.0,-20.0,-100.00,ESE,115,0.0,1.0,82,0.00,,,0.00,0.000000,,2013-03-20 08:42:00,
2013-03-20 00:52:00,-16.0,-20.0,-100.00,ESE,115,0.0,1.0,82,0.00,,,0.00,0.000000,,2013-03-20 08:52:00,
2013-03-20 01:43:00,-17.0,-22.0,-100.00,ESE,111,0.0,1.0,79,-99.99,,,-99.99,0.000000,,2013-03-20 09:43:00,
2013-03-20 02:43:00,-18.0,-22.0,-100.00,SSE,152,0.0,1.0,79,-99.99,,,0.00,0.000000,,2013-03-20 10:43:00,
2013-03-20 03:42:00,-17.0,-21.0,-100.00,SE,143,0.0,4.0,80,-99.99,,,0.00,0.000000,,2013-03-20 11:42:00,
2013-03-20 04:42:00,-14.0,-17.0,-100.00,East,100,1.0,5.0,84,-99.99,,,0.00,0.000000,,2013-03-20 12:42:00,
2013-03-20 04:52:00,-14.0,-17.0,-100.00,East,100,1.0,5.0,84,-99.99,,,0.00,0.000000,,2013-03-20 12:52:00,
2013-03-20 05:02:00,-14.0,-17.0,-100.00,East,100,1.0,5.0,84,-99.99,,,0.00,0.000000,,2013-03-20 13:02:00,
2013-03-20 05:12:00,-14.0,-17.0,-100.00,East,100,1.0,5.0,84,-99.99,,,0.00,0.000000,,2013-03-20 13:12:00,
2013-03-20 05:43:00,-16.0,-21.0,-100.00,ESE,113,1.0,3.0,77,0.00,,,0.00,0.000000,,2013-03-20 13:43:00,
2013-03-20 05:53:00,-16.0,-21.0,-100.00,ESE,113,1.0,3.0,77,0.00,,,0.00,0.000000,,2013-03-20 13:53:00,
2013-03-20 06:02:00,-16.0,-21.0,-100.00,ESE,113,1.0,3.0,77,0.00,,,0.00,0.000000,,2013-03-20 14:02:00,
2013-03-20 06:43:00,-16.0,-21.0,-100.00,East,94,1.0,4.0,78,0.00,,,0.00,0.000000,,2013-03-20 14:43:00,
2013-03-20 06:52:00,-16.0,-21.0,-100.00,East,94,1.0,4.0,78,0.00,,,0.00,0.000000,,2013-03-20 14:52:00,
2013-03-20 07:02:00,-16.0,-21.0,-100.00,East,94,1.0,4.0,78,0.00,,,0.00,0.000000,,2013-03-20 15:02:00,
2013-03-20 07:12:00,-16.0,-21.0,-100.00,East,94,1.0,4.0,78,0.00,,,0.00,0.000000,,2013-03-20 15:12:00,
2013-03-20 07:43:00,-14.0,-19.0,-100.00,SE,140,0.0,6.0,79,0.00,,,0.00,0.000000,,2013-03-20 15:43:00,
2013-03-20 07:53:00,-14.0,-19.0,-100.00,SE,140,0.0,6.0,79,0.00,,,0.00,0.000000,,2013-03-20 15:53:00,
2013-03-20 08:02:00,-14.0,-19.0,-100.00,SE,140,0.0,6.0,79,0.00,,,0.00,0.000000,,2013-03-20 16:02:00,
2013-03-20 08:12:00,-14.0,-19.0,-100.00,SE,140,0.0,6.0,79,0.00,,,0.00,0.000000,,2013-03-20 16:12:00,
2013-03-20 08:43:00,-15.0,-20.0,-100.00,South,178,0.0,4.0,78,0.00,,,0.00,5.000000,,2013-03-20 16:43:00,
2013-03-20 08:53:00,-15.0,-20.0,-100.00,South,178,0.0,4.0,78,0.00,,,0.00,5.000000,,2013-03-20 16:53:00,
2013-03-20 09:03:00,-15.0,-20.0,-100.00,South,178,0.0,4.0,78,0.00,,,0.00,5.000000,,2013-03-20 17:03:00,
2013-03-20 09:11:00,-15.0,-20.0,-100.00,South,178,0.0,4.0,78,0.00,,,0.00,5.000000,,2013-03-20 17:11:00,
2013-03-20 09:42:00,-12.0,-17.0,-100.00,ESE,120,0.0,1.0,79,0.00,,,0.00,34.000000,,2013-03-20 17:42:00,
2013-03-20 09:53:00,-12.0,-17.0,-100.00,ESE,120,0.0,1.0,79,0.00,,,0.00,34.000000,,2013-03-20 17:53:00,
2013-03-20 10:02:00,-12.0,-17.0,-100.00,ESE,120,0.0,1.0,79,0.00,,,0.00,34.000000,,2013-03-20 18:02:00,
2013-03-20 10:12:00,-12.0,-17.0,-100.00,ESE,120,0.0,1.0,79,0.00,,,0.00,34.000000,,2013-03-20 18:12:00,
2013-03-20 10:43:00,-6.0,-12.0,-100.00,ENE,63,0.0,4.0,73,0.00,,,0.00,78.000000,,2013-03-20 18:43:00,
2013-03-20 10:52:00,-6.0,-12.0,-100.00,ENE,63,0.0,4.0,73,0.00,,,0.00,78.000000,,2013-03-20 18:52:00,
2013-03-20 11:02:00,-6.0,-12.0,-100.00,ENE,63,0.0,4.0,73,0.00,,,0.00,78.000000,,2013-03-20 19:02:00,
2013-03-20 11:12:00,-6.0,-12.0,-100.00,ENE,63,0.0,4.0,73,0.00,,,0.00,78.000000,,2013-03-20 19:12:00,
2013-03-20 11:42:00,2.0,-8.0,-100.00,ENE,77,3.0,6.0,62,0.00,,,0.00,237.000000,,2013-03-20 19:42:00,
2013-03-20 11:53:00,2.0,-8.0,-100.00,ENE,77,3.0,6.0,62,0.00,,,0.00,237.000000,,2013-03-20 19:53:00,
2013-03-20 12:02:00,2.0,-8.0,-100.00,ENE,77,3.0,6.0,62,0.00,,,0.00,237.000000,,2013-03-20 20:02:00,
2013-03-20 12:12:00,2.0,-8.0,-100.00,ENE,77,3.0,6.0,62,0.00,,,0.00,237.000000,,2013-03-20 20:12:00,
2013-03-20 12:42:00,6.0,-8.0,-100.00,ESE,123,1.0,5.0,51,0.00,,,0.00,258.000000,,2013-03-20 20:42:00,
2013-03-20 12:53:00,6.0,-8.0,-100.00,ESE,123,1.0,5.0,51,0.00,,,0.00,258.000000,,2013-03-20 20:53:00,
2013-03-20 13:02:00,6.0,-8.0,-100.00,ESE,123,1.0,5.0,51,0.00,,,0.00,258.000000,,2013-03-20 21:02:00,
2013-03-20 13:12:00,6.0,-8.0,-100.00,ESE,123,1.0,5.0,51,0.00,,,0.00,258.000000,,2013-03-20 21:12:00,
2013-03-20 13:42:00,10.0,-6.0,-100.00,SW,221,2.0,4.0,48,0.00,,,0.00,284.000000,,2013-03-20 21:42:00,
2013-03-20 13:52:00,10.0,-6.0,-100.00,SW,221,2.0,4.0,48,0.00,,,0.00,284.000000,,2013-03-20 21:52:00,
2013-03-20 14:02:00,10.0,-6.0,-100.00,SW,221,2.0,4.0,48,0.00,,,0.00,284.000000,,2013-03-20 22:02:00,
2013-03-20 14:12:00,10.0,-6.0,-100.00,SW,221,2.0,4.0,48,0.00,,,0.00,284.000000,,2013-03-20 22:12:00,
2013-03-20 14:43:00,13.0,-3.0,-100.00,West,265,1.0,6.0,47,0.00,,,0.00,458.000000,,2013-03-20 22:43:00,
2013-03-20 14:52:00,13.0,-3.0,-100.00,West,265,1.0,6.0,47,0.00,,,0.00,458.000000,,2013-03-20 22:52:00,
2013-03-20 15:02:00,13.0,-3.0,-100.00,West,265,1.0,6.0,47,0.00,,,0.00,458.000000,,2013-03-20 23:02:00,
2013-03-20 15:12:00,13.0,-3.0,-100.00,West,265,1.0,6.0,47,0.00,,,0.00,458.000000,,2013-03-20 23:12:00,
2013-03-20 15:43:00,13.0,-6.0,-100.00,SW,229,2.0,5.0,41,0.00,,,0.00,480.000000,,2013-03-20 23:43:00,
2013-03-20 15:52:00,13.0,-6.0,-100.00,SW,229,2.0,5.0,41,0.00,,,0.00,480.000000,,2013-03-20 23:52:00,
2013-03-20 16:02:00,13.0,-6.0,-100.00,SW,229,2.0,5.0,41,0.00,,,0.00,480.000000,,2013-03-21 00:02:00,
2013-03-20 16:12:00,13.0,-6.0,-100.00,SW,229,2.0,5.0,41,0.00,,,0.00,480.000000,,2013-03-21 00:12:00,
2013-03-20 16:33:00,13.0,-5.0,-100.00,SSW,212,1.0,5.0,43,0.00,,,0.00,405.000000,,2013-03-21 00:33:00,
2013-03-20 16:42:00,13.0,-5.0,-100.00,SSW,212,1.0,5.0,43,0.00,,,0.00,405.000000,,2013-03-21 00:42:00,
2013-03-20 16:52:00,13.0,-5.0,-100.00,SSW,212,1.0,5.0,43,0.00,,,0.00,405.000000,,2013-03-21 00:52:00,
2013-03-20 17:02:00,13.0,-5.0,-100.00,SSW,212,1.0,5.0,43,0.00,,,0.00,405.000000,,2013-03-21 01:02:00,
2013-03-20 17:11:00,13.0,-5.0,-100.00,SSW,212,1.0,5.0,43,0.00,,,0.00,405.000000,,2013-03-21 01:11:00,
2013-03-20 17:42:00,15.0,-2.0,-100.00,SE,141,1.0,4.0,45,0.00,,,0.00,230.000000,,2013-03-21 01:42:00,
2013-03-20 17:52:00,15.0,-2.0,-100.00,SE,141,1.0,4.0,45,0.00,,,0.00,230.000000,,2013-03-21 01:52:00,
2013-03-20 18:12:00,15.0,-2.0,-100.00,SE,141,1.0,4.0,45,0.00,,,0.00,230.000000,,2013-03-21 02:12:00,
2013-03-20 19:02:00,11.0,-6.0,-100.00,ESE,108,1.0,4.0,45,0.00,,,0.00,148.000000,,2013-03-21 03:02:00,
2013-03-20 19:12:00,11.0,-6.0,-100.00,ESE,108,1.0,4.0,45,0.00,,,0.00,148.000000,,2013-03-21 03:12:00,
2013-03-20 19:43:00,7.0,-6.0,-100.00,South,171,0.0,3.0,54,0.00,,,0.00,47.000000,,2013-03-21 03:43:00,
2013-03-20 19:53:00,7.0,-6.0,-100.00,South,171,0.0,3.0,54,0.00,,,0.00,47.000000,,2013-03-21 03:53:00,
2013-03-20 20:02:00,7.0,-6.0,-100.00,South,171,0.0,3.0,54,0.00,,,0.00,47.000000,,2013-03-21 04:02:00,
2013-03-20 20:12:00,7.0,-6.0,-100.00,South,171,0.0,3.0,54,0.00,,,0.00,47.000000,,2013-03-21 04:12:00,
2013-03-20 20:43:00,1.0,-9.0,-100.00,SE,135,0.0,1.0,63,0.00,,,-99.99,17.000000,,2013-03-21 04:43:00,
2013-03-20 20:53:00,1.0,-9.0,-100.00,SE,135,0.0,1.0,63,0.00,,,-99.99,17.000000,,2013-03-21 04:53:00,
2013-03-20 21:02:00,1.0,-9.0,-100.00,SE,135,0.0,1.0,63,0.00,,,-99.99,17.000000,,2013-03-21 05:02:00,
2013-03-20 21:12:00,1.0,-9.0,-100.00,SE,135,0.0,1.0,63,0.00,,,-99.99,17.000000,,2013-03-21 05:12:00,
2013-03-20 21:44:00,-1.0,-8.0,-100.00,East,85,0.0,0.0,71,0.00,,,-99.99,0.000000,,2013-03-21 05:44:00,
2013-03-20 21:52:00,-1.0,-8.0,-100.00,East,85,0.0,0.0,71,0.00,,,-99.99,0.000000,,2013-03-21 05:52:00,
2013-03-20 22:02:00,-1.0,-8.0,-100.00,East,85,0.0,0.0,71,0.00,,,-99.99,0.000000,,2013-03-21 06:02:00,
2013-03-20 22:12:00,-1.0,-8.0,-100.00,East,85,0.0,0.0,71,0.00,,,-99.99,0.000000,,2013-03-21 06:12:00,
2013-03-20 22:42:00,-1.0,-6.0,-100.00,East,100,0.0,0.0,78,0.00,,,0.00,0.000000,,2013-03-21 06:42:00,
2013-03-20 22:52:00,-1.0,-6.0,-100.00,East,100,0.0,0.0,78,0.00,,,0.00,0.000000,,2013-03-21 06:52:00,
2013-03-20 23:02:00,-1.0,-6.0,-100.00,East,100,0.0,0.0,78,0.00,,,0.00,0.000000,,2013-03-21 07:02:00,
2013-03-20 23:12:00,-1.0,-6.0,-100.00,East,100,0.0,0.0,78,0.00,,,0.00,0.000000,,2013-03-21 07:12:00,
2013-03-20 23:42:00,2.0,-2.0,-100.00,SE,125,0.0,4.0,81,0.00,,,0.00,0.000000,,2013-03-21 07:42:00,
2013-03-20 23:52:00,2.0,-2.0,-100.00,SE,125,0.0,4.0,81,0.00,,,0.00,0.000000,,2013-03-21 07:52:00,